Time;durP1;ratioP1;P1;durP2;ratioP2;P2;SDS_P1;SDS_P2;PMS_P1;PMS_P2;Temp;Humidity;BMP_temperature;BMP_pressure;BME280_temperature;BME280_humidity;BME280_pressure;Samples;Min_cycle;Max_cycle;Signal;HPM_P1;HPM_P2
2021/07/12 00:01:23;;;;;;;50.25;45.08;;;;;;;;;;5035378;28;20022;-57
2021/07/12 00:03:49;;;;;;;47.72;42.92;;;;;;;;;;5035701;28;20551;-58
2021/07/12 00:06:15;;;;;;;49.33;44.15;;;;;;;;;;5035741;28;20481;-55
2021/07/12 00:08:41;;;;;;;46.10;41.17;;;;;;;;;;5035926;28;20029;-57
2021/07/12 00:11:08;;;;;;;49.28;43.58;;;;;;;;;;5034727;28;20029;-58
2021/07/12 00:13:34;;;;;;;50.70;45.42;;;;;;;;;;5035664;28;20446;-57
2021/07/12 00:16:00;;;;;;;47.83;42.88;;;;;;;;;;5035205;28;20116;-58
2021/07/12 00:18:26;;;;;;;50.72;45.30;;;;;;;;;;5035343;28;20112;-58
2021/07/12 00:20:52;;;;;;;48.88;43.78;;;;;;;;;;5033969;28;20120;-58
2021/07/12 00:23:18;;;;;;;49.42;44.05;;;;;;;;;;5034235;28;20037;-59
2021/07/12 00:25:44;;;;;;;49.70;44.47;;;;;;;;;;5034928;28;20068;-58
2021/07/12 00:28:10;;;;;;;50.20;45.03;;;;;;;;;;5034157;28;20385;-56
2021/07/12 00:30:36;;;;;;;49.05;44.00;;;;;;;;;;5033836;28;20037;-58
2021/07/12 00:33:02;;;;;;;49.60;43.78;;;;;;;;;;5035105;28;20108;-58
2021/07/12 00:35:29;;;;;;;51.28;45.92;;;;;;;;;;5034891;28;20115;-58
2021/07/12 00:37:55;;;;;;;52.03;46.22;;;;;;;;;;5033794;28;20029;-58
2021/07/12 00:40:23;;;;;;;51.35;45.70;;;;;;;;;;5035051;28;20022;-58
2021/07/12 00:42:49;;;;;;;52.35;46.33;;;;;;;;;;5035166;28;20029;-58
2021/07/12 00:45:34;;;;;;;48.50;43.42;;;;;;;;;;5034510;28;20025;-56
2021/07/12 00:48:01;;;;;;;49.15;44.08;;;;;;;;;;5035672;28;20022;-58
2021/07/12 00:50:29;;;;;;;50.28;44.78;;;;;;;;;;5035079;28;20029;-58
2021/07/12 00:52:56;;;;;;;47.85;42.90;;;;;;;;;;5035097;28;20030;-58
2021/07/12 00:55:32;;;;;;;52.45;46.95;;;;;;;;;;5034602;28;20025;-60
2021/07/12 00:57:58;;;;;;;46.90;41.92;;;;;;;;;;5034597;28;20053;-58
2021/07/12 01:00:26;;;;;;;47.08;42.08;;;;;;;;;;5034073;28;20430;-59
2021/07/12 01:02:52;;;;;;;47.33;42.53;;;;;;;;;;5034797;28;20096;-58
2021/07/12 01:05:20;;;;;;;45.90;40.92;;;;;;;;;;5034425;28;20022;-58
2021/07/12 01:07:47;;;;;;;46.88;41.97;;;;;;;;;;5034563;28;20029;-58
2021/07/12 01:10:14;;;;;;;46.88;40.90;;;;;;;;;;5033222;28;20052;-58
2021/07/12 01:12:55;;;;;;;47.50;42.50;;;;;;;;;;5034504;28;20021;-58
2021/07/12 01:15:23;;;;;;;48.13;43.17;;;;;;;;;;5033104;28;20477;-59
2021/07/12 01:18:13;;;;;;;47.97;43.08;;;;;;;;;;5033126;28;20163;-58
2021/07/12 01:20:57;;;;;;;49.40;44.10;;;;;;;;;;5034209;28;20139;-58
2021/07/12 01:23:31;;;;;;;50.75;45.58;;;;;;;;;;5034295;28;20075;-58
2021/07/12 01:26:16;;;;;;;49.38;44.13;;;;;;;;;;5033271;28;20021;-58
2021/07/12 01:29:00;;;;;;;48.50;43.38;;;;;;;;;;5034070;28;20037;-56
2021/07/12 01:31:35;;;;;;;50.97;45.47;;;;;;;;;;5034247;28;20370;-58
2021/07/12 01:34:05;;;;;;;51.40;45.95;;;;;;;;;;5034290;28;20041;-59
2021/07/12 01:36:37;;;;;;;50.10;44.80;;;;;;;;;;5032575;28;20025;-58
2021/07/12 01:39:08;;;;;;;50.20;44.75;;;;;;;;;;5033998;28;20040;-58
2021/07/12 01:41:42;;;;;;;48.15;43.08;;;;;;;;;;5032856;28;20399;-58
2021/07/12 01:44:08;;;;;;;48.50;43.53;;;;;;;;;;5033766;28;20029;-59
2021/07/12 01:46:53;;;;;;;49.65;44.42;;;;;;;;;;5032139;28;20017;-58
2021/07/12 01:49:25;;;;;;;51.60;46.03;;;;;;;;;;5033626;28;20068;-59
2021/07/12 01:52:09;;;;;;;49.53;44.50;;;;;;;;;;5110793;22;20620;-59
2021/07/12 01:54:43;;;;;;;47.97;42.95;;;;;;;;;;5092652;28;20152;-57
2021/07/12 01:57:15;;;;;;;46.65;41.85;;;;;;;;;;5091011;28;20429;-61
2021/07/12 01:59:41;;;;;;;47.63;42.58;;;;;;;;;;5092420;28;20369;-61
2021/07/12 02:02:08;;;;;;;48.90;43.90;;;;;;;;;;5091042;28;20031;-59
2021/07/12 02:04:34;;;;;;;49.25;43.80;;;;;;;;;;5091051;28;20020;-57
2021/07/12 02:07:00;;;;;;;47.70;42.47;;;;;;;;;;5091308;28;20028;-60
2021/07/12 02:09:27;;;;;;;50.13;45.00;;;;;;;;;;5090954;28;20032;-60
2021/07/12 02:11:56;;;;;;;49.75;44.50;;;;;;;;;;5092649;28;20020;-58
2021/07/12 02:14:23;;;;;;;50.38;45.03;;;;;;;;;;5091362;28;20062;-58
2021/07/12 02:16:51;;;;;;;50.10;44.38;;;;;;;;;;5092376;28;20028;-58
2021/07/12 02:19:18;;;;;;;48.55;43.30;;;;;;;;;;5092312;28;20056;-57
2021/07/12 02:21:46;;;;;;;48.42;43.33;;;;;;;;;;5092600;28;20115;-59
2021/07/12 02:24:13;;;;;;;52.55;46.90;;;;;;;;;;5092424;28;20032;-58
2021/07/12 02:26:40;;;;;;;51.35;45.85;;;;;;;;;;5092229;28;20069;-58
2021/07/12 02:29:08;;;;;;;48.83;43.63;;;;;;;;;;5090930;28;20372;-60
2021/07/12 02:31:35;;;;;;;49.45;44.45;;;;;;;;;;5092114;28;20498;-59
2021/07/12 02:34:01;;;;;;;48.83;43.47;;;;;;;;;;5092036;28;20062;-59
2021/07/12 02:36:28;;;;;;;49.50;44.20;;;;;;;;;;5090445;28;20023;-59
2021/07/12 02:38:55;;;;;;;48.47;43.28;;;;;;;;;;5090500;28;20391;-58
2021/07/12 02:41:21;;;;;;;48.38;43.20;;;;;;;;;;5090453;28;20073;-59
2021/07/12 02:43:48;;;;;;;49.70;44.50;;;;;;;;;;5091821;28;20039;-60
2021/07/12 02:46:14;;;;;;;51.70;46.35;;;;;;;;;;5090417;28;20107;-57
2021/07/12 02:48:40;;;;;;;48.80;43.53;;;;;;;;;;5090350;28;20114;-60
2021/07/12 02:51:09;;;;;;;49.55;42.97;;;;;;;;;;5090229;28;20043;-60
2021/07/12 02:53:35;;;;;;;;;;;;;;;;;;5092678;28;20036;-59
2021/07/12 02:56:01;;;;;;;48.92;43.78;;;;;;;;;;5091486;28;19904;-58
2021/07/12 02:58:27;;;;;;;51.72;46.17;;;;;;;;;;5091883;28;20475;-58
2021/07/12 03:00:53;;;;;;;50.53;45.22;;;;;;;;;;5091204;28;20064;-58
2021/07/12 03:03:19;;;;;;;55.70;47.75;;;;;;;;;;5090169;28;20103;-57
2021/07/12 03:05:45;;;;;;;51.30;45.10;;;;;;;;;;5090328;28;20031;-60
2021/07/12 03:08:11;;;;;;;51.70;45.33;;;;;;;;;;5090551;28;20081;-54
2021/07/12 03:10:40;;;;;;;50.50;45.25;;;;;;;;;;5091027;28;20021;-58
2021/07/12 03:13:08;;;;;;;51.58;45.85;;;;;;;;;;5091480;28;20031;-57
2021/07/12 03:15:45;;;;;;;51.97;46.33;;;;;;;;;;5089894;28;20020;-60
2021/07/12 03:18:29;;;;;;;53.42;46.35;;;;;;;;;;5091706;28;20020;-60
2021/07/12 03:20:57;;;;;;;53.65;46.72;;;;;;;;;;5090065;28;20032;-60
2021/07/12 03:23:23;;;;;;;52.15;44.58;;;;;;;;;;5091480;28;20028;-59
2021/07/12 03:25:53;;;;;;;51.38;45.78;;;;;;;;;;5091352;28;20031;-60
2021/07/12 03:28:20;;;;;;;51.75;45.95;;;;;;;;;;5091263;28;20020;-58
2021/07/12 03:30:47;;;;;;;49.65;44.03;;;;;;;;;;5089839;28;20372;-57
2021/07/12 03:33:14;;;;;;;52.22;45.13;;;;;;;;;;5091369;28;20016;-57
2021/07/12 03:35:44;;;;;;;51.13;45.50;;;;;;;;;;5089649;28;20031;-58
2021/07/12 03:38:14;;;;;;;51.47;44.83;;;;;;;;;;5091009;28;20020;-54
2021/07/12 03:40:40;;;;;;;50.47;45.08;;;;;;;;;;5091124;28;20448;-60
2021/07/12 03:43:08;;;;;;;55.05;46.90;;;;;;;;;;5091417;28;20028;-56
2021/07/12 03:45:34;;;;;;;53.88;47.92;;;;;;;;;;5089699;28;20048;-58
2021/07/12 03:48:00;;;;;;;54.58;46.25;;;;;;;;;;5089850;28;20393;-60
2021/07/12 03:50:28;;;;;;;48.08;42.97;;;;;;;;;;5089325;28;20034;-59
2021/07/12 03:52:54;;;;;;;50.13;44.65;;;;;;;;;;5089754;28;20020;-58
2021/07/12 03:55:23;;;;;;;55.50;46.70;;;;;;;;;;5090838;28;20024;-60
2021/07/12 03:57:50;;;;;;;51.97;44.55;;;;;;;;;;5091176;28;20027;-58
2021/07/12 04:00:18;;;;;;;47.95;42.63;;;;;;;;;;5089488;28;20020;-58
2021/07/12 04:02:44;;;;;;;50.10;44.70;;;;;;;;;;5089410;28;20024;-58
2021/07/12 04:05:10;;;;;;;49.75;43.33;;;;;;;;;;5090534;28;20081;-60
2021/07/12 04:07:37;;;;;;;50.80;44.85;;;;;;;;;;5089353;28;20028;-60
2021/07/12 04:10:09;;;;;;;49.80;44.35;;;;;;;;;;5090625;28;20392;-59
2021/07/12 04:12:35;;;;;;;45.17;40.28;;;;;;;;;;5091568;28;20107;-60
2021/07/12 04:15:01;;;;;;;47.03;41.97;;;;;;;;;;5091200;28;20052;-60
2021/07/12 04:17:27;;;;;;;47.83;42.80;;;;;;;;;;5091193;28;20515;-59
2021/07/12 04:19:53;;;;;;;45.10;40.25;;;;;;;;;;5091440;28;20055;-59
2021/07/12 04:22:19;;;;;;;46.42;41.63;;;;;;;;;;5092944;28;20035;-59
2021/07/12 04:24:46;;;;;;;46.28;41.40;;;;;;;;;;5093310;28;20654;-60
2021/07/12 04:27:11;;;;;;;46.17;41.33;;;;;;;;;;5094255;28;20449;-57
2021/07/12 04:29:37;;;;;;;46.08;41.30;;;;;;;;;;5093117;28;20032;-58
2021/07/12 04:32:04;;;;;;;44.63;39.92;;;;;;;;;;5094284;28;20149;-60
2021/07/12 04:34:30;;;;;;;46.03;40.78;;;;;;;;;;5094224;28;20074;-58
2021/07/12 04:36:56;;;;;;;44.45;39.80;;;;;;;;;;5094038;28;20024;-60
2021/07/12 04:39:22;;;;;;;44.90;40.20;;;;;;;;;;5093862;28;20036;-58
2021/07/12 04:41:48;;;;;;;46.25;41.35;;;;;;;;;;5092799;28;20069;-57
2021/07/12 04:44:14;;;;;;;49.40;41.88;;;;;;;;;;5092529;28;20024;-60
2021/07/12 04:46:40;;;;;;;56.03;49.83;;;;;;;;;;5092492;28;20056;-54
2021/07/12 04:49:06;;;;;;;46.75;41.60;;;;;;;;;;5092989;28;20391;-55
2021/07/12 04:51:33;;;;;;;49.83;44.72;;;;;;;;;;5091831;28;20042;-63
2021/07/12 04:53:59;;;;;;;44.50;39.10;;;;;;;;;;5090934;28;20076;-62
2021/07/12 04:56:25;;;;;;;45.15;40.47;;;;;;;;;;5073536;28;20052;-62
2021/07/12 04:58:52;;;;;;;43.15;38.45;;;;;;;;;;5078021;28;20077;-63
2021/07/12 05:01:18;;;;;;;43.85;39.10;;;;;;;;;;5093910;28;20050;-63
2021/07/12 05:03:44;;;;;;;44.10;37.30;;;;;;;;;;5093957;28;20479;-63
2021/07/12 05:06:10;;;;;;;43.05;38.58;;;;;;;;;;5092613;28;20035;-62
2021/07/12 05:08:36;;;;;;;41.30;36.85;;;;;;;;;;5093789;28;20020;-63
2021/07/12 05:11:02;;;;;;;44.75;39.83;;;;;;;;;;5093247;28;20436;-62
2021/07/12 05:13:31;;;;;;;40.25;36.00;;;;;;;;;;5093550;28;20028;-63
2021/07/12 05:15:58;;;;;;;39.38;35.17;;;;;;;;;;5091997;28;20036;-63
2021/07/12 05:18:24;;;;;;;40.50;36.15;;;;;;;;;;5093362;28;20069;-63
2021/07/12 05:20:53;;;;;;;44.03;37.30;;;;;;;;;;5093078;28;20020;-62
2021/07/12 05:23:20;;;;;;;40.60;35.63;;;;;;;;;;5091426;28;20032;-62
2021/07/12 05:25:46;;;;;;;41.92;37.40;;;;;;;;;;5074614;28;20021;-62
2021/07/12 05:28:12;;;;;;;50.65;44.63;;;;;;;;;;5072735;28;20383;-63
2021/07/12 05:30:38;;;;;;;46.28;40.40;;;;;;;;;;5072887;28;20025;-59
2021/07/12 05:33:05;;;;;;;45.75;39.30;;;;;;;;;;5072513;28;20407;-63
2021/07/12 05:35:31;;;;;;;43.28;36.25;;;;;;;;;;5072299;28;20028;-63
2021/07/12 05:37:57;;;;;;;48.35;36.50;;;;;;;;;;5072342;28;20104;-62
2021/07/12 05:40:23;;;;;;;47.58;37.58;;;;;;;;;;5070994;28;20400;-63
2021/07/12 05:42:49;;;;;;;42.88;37.97;;;;;;;;;;5072268;28;20453;-63
2021/07/12 05:45:15;;;;;;;41.58;36.55;;;;;;;;;;5070552;28;20063;-59
2021/07/12 05:47:41;;;;;;;41.38;36.88;;;;;;;;;;5070857;28;20453;-61
2021/07/12 05:50:10;;;;;;;48.80;42.63;;;;;;;;;;5071994;28;20056;-63
2021/07/12 05:52:36;;;;;;;44.33;39.20;;;;;;;;;;5070574;28;20029;-62
2021/07/12 05:55:03;;;;;;;42.88;38.33;;;;;;;;;;5072088;28;20085;-62
2021/07/12 05:57:29;;;;;;;46.42;38.70;;;;;;;;;;5071636;28;20028;-63
2021/07/12 05:59:55;;;;;;;45.00;38.95;;;;;;;;;;5071813;28;20037;-62
2021/07/12 06:02:21;;;;;;;44.00;38.88;;;;;;;;;;5071899;28;20023;-63
2021/07/12 06:04:47;;;;;;;43.10;38.22;;;;;;;;;;5071920;28;20016;-62
2021/07/12 06:07:13;;;;;;;42.83;38.15;;;;;;;;;;5071734;28;20024;-61
2021/07/12 06:09:39;;;;;;;43.80;39.13;;;;;;;;;;5071735;28;20431;-63
2021/07/12 06:12:05;;;;;;;45.42;38.75;;;;;;;;;;5070580;28;20123;-64
2021/07/12 06:14:31;;;;;;;44.97;37.15;;;;;;;;;;5071437;28;20036;-63
2021/07/12 06:16:57;;;;;;;42.58;38.03;;;;;;;;;;5070033;28;20025;-64
2021/07/12 06:19:23;;;;;;;42.30;37.70;;;;;;;;;;5071381;28;20047;-63
2021/07/12 06:21:49;;;;;;;42.50;37.88;;;;;;;;;;5071667;28;20473;-61
2021/07/12 06:24:16;;;;;;;42.33;37.88;;;;;;;;;;5075003;28;20027;-63
2021/07/12 06:26:42;;;;;;;45.55;40.55;;;;;;;;;;5090528;28;20019;-63
2021/07/12 06:29:08;;;;;;;45.08;38.88;;;;;;;;;;5091936;28;20024;-61
2021/07/12 06:31:34;;;;;;;43.78;38.50;;;;;;;;;;5082863;28;20063;-63
2021/07/12 06:34:00;;;;;;;40.05;34.15;;;;;;;;;;5080134;28;20101;-63
2021/07/12 06:36:26;;;;;;;41.00;34.75;;;;;;;;;;5079989;28;20044;-63
2021/07/12 06:38:52;;;;;;;39.70;34.53;;;;;;;;;;5080544;28;20029;-62
2021/07/12 06:41:18;;;;;;;38.42;32.47;;;;;;;;;;5079195;28;20016;-62
2021/07/12 06:43:44;;;;;;;36.42;32.35;;;;;;;;;;5070720;28;20025;-63
2021/07/12 06:46:10;;;;;;;39.45;33.53;;;;;;;;;;5070777;28;20534;-63
2021/07/12 06:48:36;;;;;;;39.47;34.92;;;;;;;;;;5078109;28;20111;-63
2021/07/12 06:51:02;;;;;;;39.55;35.20;;;;;;;;;;5079870;28;20039;-63
2021/07/12 06:53:28;;;;;;;39.65;34.22;;;;;;;;;;5082775;28;20399;-59
2021/07/12 06:55:54;;;;;;;38.08;34.03;;;;;;;;;;5079749;28;20071;-63
2021/07/12 06:58:20;;;;;;;40.17;33.58;;;;;;;;;;5078438;28;20021;-63
2021/07/12 07:00:46;;;;;;;37.80;32.72;;;;;;;;;;5082363;28;20047;-61
2021/07/12 07:03:12;;;;;;;39.47;33.75;;;;;;;;;;5091085;28;20012;-63
2021/07/12 07:05:38;;;;;;;40.22;33.90;;;;;;;;;;5090911;28;20381;-63
2021/07/12 07:08:04;;;;;;;37.22;32.53;;;;;;;;;;5091288;28;20020;-63
2021/07/12 07:10:30;;;;;;;37.13;31.70;;;;;;;;;;5073008;28;20024;-62
2021/07/12 07:12:56;;;;;;;34.63;30.63;;;;;;;;;;5091200;28;20052;-64
2021/07/12 07:15:23;;;;;;;38.30;33.95;;;;;;;;;;5089454;28;20476;-65
2021/07/12 07:17:50;;;;;;;39.70;32.80;;;;;;;;;;5080802;28;20032;-66
2021/07/12 07:20:16;;;;;;;35.88;31.98;;;;;;;;;;5082670;28;20024;-65
2021/07/12 07:22:42;;;;;;;38.80;32.13;;;;;;;;;;5091109;28;20021;-63
2021/07/12 07:25:08;;;;;;;37.88;30.83;;;;;;;;;;5090502;28;20024;-67
2021/07/12 07:27:34;;;;;;;35.05;30.80;;;;;;;;;;5089674;28;20048;-59
2021/07/12 07:30:00;;;;;;;39.25;31.10;;;;;;;;;;5090768;28;20426;-63
2021/07/12 07:32:26;;;;;;;35.10;31.40;;;;;;;;;;5090748;28;20105;-64
2021/07/12 07:34:52;;;;;;;36.10;30.40;;;;;;;;;;5089316;28;20034;-61
2021/07/12 07:37:18;;;;;;;33.28;29.67;;;;;;;;;;5090517;28;20028;-62
2021/07/12 07:39:44;;;;;;;35.60;30.13;;;;;;;;;;5090649;28;20084;-63
2021/07/12 07:42:10;;;;;;;35.50;31.70;;;;;;;;;;5089492;28;20047;-62
2021/07/12 07:44:36;;;;;;;35.67;30.60;;;;;;;;;;5090575;28;20062;-63
2021/07/12 07:47:02;;;;;;;36.03;30.73;;;;;;;;;;5089207;28;20440;-63
2021/07/12 07:49:28;;;;;;;42.25;30.75;;;;;;;;;;5089525;28;20182;-64
2021/07/12 07:51:54;;;;;;;33.42;29.83;;;;;;;;;;5079967;22;20071;-61
2021/07/12 07:54:21;;;;;;;35.58;30.60;;;;;;;;;;5031575;28;20484;-61
2021/07/12 07:56:47;;;;;;;34.80;30.23;;;;;;;;;;5015732;28;20370;-61
2021/07/12 07:59:14;;;;;;;36.78;29.92;;;;;;;;;;5017723;28;20405;-61
2021/07/12 08:01:41;;;;;;;33.63;29.15;;;;;;;;;;5035298;28;20063;-61
2021/07/12 08:04:07;;;;;;;33.67;28.48;;;;;;;;;;5035457;28;20021;-61
2021/07/12 08:06:33;;;;;;;33.95;29.15;;;;;;;;;;5035277;28;20021;-61
2021/07/12 08:08:59;;;;;;;35.88;28.98;;;;;;;;;;5035274;28;20032;-61
2021/07/12 08:11:25;;;;;;;33.20;28.17;;;;;;;;;;5017756;28;20112;-62
2021/07/12 08:13:52;;;;;;;33.00;29.35;;;;;;;;;;5035025;28;20033;-68
2021/07/12 08:16:18;;;;;;;34.03;29.55;;;;;;;;;;5016587;28;20076;-61
2021/07/12 08:18:44;;;;;;;33.25;29.42;;;;;;;;;;5035135;28;20629;-62
2021/07/12 08:21:11;;;;;;;35.35;29.80;;;;;;;;;;5034963;28;20018;-64
2021/07/12 08:23:39;;;;;;;34.88;29.23;;;;;;;;;;5034896;28;20028;-61
2021/07/12 08:26:05;;;;;;;31.38;27.77;;;;;;;;;;5034901;28;20022;-61
2021/07/12 08:28:31;;;;;;;32.20;28.67;;;;;;;;;;5017312;28;20055;-61
2021/07/12 08:30:57;;;;;;;32.88;29.25;;;;;;;;;;5016967;28;20521;-61
2021/07/12 08:33:23;;;;;;;30.75;27.45;;;;;;;;;;5034830;28;20028;-61
2021/07/12 08:35:49;;;;;;;32.58;29.17;;;;;;;;;;5034221;28;20025;-61
2021/07/12 08:38:16;;;;;;;34.47;30.65;;;;;;;;;;5034903;28;20029;-61
2021/07/12 08:40:42;;;;;;;34.00;30.33;;;;;;;;;;5016844;28;20432;-60
2021/07/12 08:43:08;;;;;;;33.17;29.65;;;;;;;;;;5034416;28;20025;-61
2021/07/12 08:45:34;;;;;;;34.97;30.77;;;;;;;;;;5034311;28;20029;-61
2021/07/12 08:48:01;;;;;;;35.45;30.08;;;;;;;;;;5016743;28;20029;-61
2021/07/12 08:50:27;;;;;;;35.15;31.35;;;;;;;;;;5034597;28;20049;-61
2021/07/12 08:52:54;;;;;;;38.70;30.95;;;;;;;;;;5034006;28;20448;-61
2021/07/12 08:55:20;;;;;;;34.42;30.00;;;;;;;;;;5034335;28;20056;-63
2021/07/12 08:57:56;;;;;;;32.70;29.10;;;;;;;;;;5034240;28;20109;-60
2021/07/12 09:00:34;;;;;;;35.50;27.60;;;;;;;;;;5016562;28;20466;-62
2021/07/12 09:03:18;;;;;;;31.48;28.02;;;;;;;;;;5016496;28;20192;-60
2021/07/12 09:05:56;;;;;;;28.15;25.15;;;;;;;;;;5015937;28;20022;-61
2021/07/12 09:08:37;;;;;;;28.60;25.50;;;;;;;;;;5015559;28;20076;-61
2021/07/12 09:11:07;;;;;;;29.58;26.40;;;;;;;;;;5033550;28;20032;-61
2021/07/12 09:13:43;;;;;;;28.42;24.55;;;;;;;;;;5033743;28;20032;-61
2021/07/12 09:16:25;;;;;;;27.85;24.92;;;;;;;;;;5033531;28;20017;-61
2021/07/12 09:18:51;;;;;;;27.73;24.77;;;;;;;;;;5033385;28;20481;-61
2021/07/12 09:21:17;;;;;;;28.85;25.83;;;;;;;;;;5033192;28;20013;-62
2021/07/12 09:23:43;;;;;;;28.70;25.73;;;;;;;;;;5033592;28;20036;-61
2021/07/12 09:26:09;;;;;;;28.85;25.88;;;;;;;;;;5033031;28;20131;-61
2021/07/12 09:28:44;;;;;;;29.08;26.10;;;;;;;;;;5015885;28;20151;-61
2021/07/12 09:31:26;;;;;;;28.73;25.83;;;;;;;;;;5033485;28;20067;-61
2021/07/12 09:33:52;;;;;;;30.95;26.90;;;;;;;;;;5033571;28;20021;-61
2021/07/12 09:36:18;;;;;;;29.98;24.80;;;;;;;;;;5032840;28;20017;-61
2021/07/12 09:38:44;;;;;;;28.95;25.90;;;;;;;;;;5015659;28;20565;-61
2021/07/12 09:41:29;;;;;;;25.38;22.67;;;;;;;;;;5033357;28;20064;-61
2021/07/12 09:44:01;;;;;;;26.60;23.70;;;;;;;;;;5015755;28;20129;-61
2021/07/12 09:46:28;;;;;;;26.55;23.75;;;;;;;;;;5015435;28;20025;-61
2021/07/12 09:49:07;;;;;;;26.00;23.33;;;;;;;;;;5033220;28;20397;-63
2021/07/12 09:51:34;;;;;;;27.42;24.63;;;;;;;;;;5032008;28;20156;-63
2021/07/12 09:54:19;;;;;;;27.65;24.73;;;;;;;;;;5031121;28;20063;-65
2021/07/12 09:56:49;;;;;;;29.50;26.08;;;;;;;;;;5013830;28;20022;-63
2021/07/12 09:59:15;;;;;;;27.58;24.77;;;;;;;;;;5014930;28;20531;-63
2021/07/12 10:01:49;;;;;;;29.00;26.05;;;;;;;;;;5032708;28;20421;-64
2021/07/12 10:04:15;;;;;;;31.42;25.83;;;;;;;;;;5033109;28;20512;-64
2021/07/12 10:06:43;;;;;;;27.65;24.83;;;;;;;;;;5014785;28;20489;-63
2021/07/12 10:09:09;;;;;;;27.60;24.70;;;;;;;;;;5015645;28;20374;-64
2021/07/12 10:11:35;;;;;;;29.63;26.73;;;;;;;;;;5014895;28;20389;-64
2021/07/12 10:14:01;;;;;;;27.05;24.17;;;;;;;;;;5033025;28;20439;-64
2021/07/12 10:16:29;;;;;;;26.73;23.92;;;;;;;;;;5032238;28;20036;-64
2021/07/12 10:18:55;;;;;;;27.55;24.27;;;;;;;;;;5014068;28;20512;-64
2021/07/12 10:21:22;;;;;;;28.17;25.27;;;;;;;;;;5014600;28;20116;-64
2021/07/12 10:23:48;;;;;;;31.75;25.45;;;;;;;;;;5014516;28;20045;-64
2021/07/12 10:26:34;;;;;;;26.67;23.92;;;;;;;;;;5014222;28;20027;-64
2021/07/12 10:29:20;;;;;;;28.23;25.42;;;;;;;;;;5032144;28;20481;-63
2021/07/12 10:31:55;;;;;;;28.50;25.50;;;;;;;;;;5031989;28;20544;-64
2021/07/12 10:34:25;;;;;;;25.63;22.95;;;;;;;;;;5032222;28;20029;-63
2021/07/12 10:36:58;;;;;;;26.70;23.88;;;;;;;;;;5031957;28;20033;-63
2021/07/12 10:39:44;;;;;;;25.33;22.73;;;;;;;;;;5014317;28;20025;-63
2021/07/12 10:42:10;;;;;;;27.73;24.92;;;;;;;;;;5014083;28;20061;-63
2021/07/12 10:44:54;;;;;;;27.27;24.48;;;;;;;;;;5014374;28;20053;-63
2021/07/12 10:47:40;;;;;;;28.00;25.15;;;;;;;;;;5031678;28;20022;-63
2021/07/12 10:50:43;;;;;;;27.02;24.17;;;31.60;94.00;;;;;;5031727;28;20556;-63
2021/07/12 10:53:15;;;;;;;27.90;24.95;;;;;;;;;;5013975;28;20098;-63
2021/07/12 10:55:45;;;;;;;27.25;24.55;;;;;;;;;;5013801;28;20556;-63
2021/07/12 10:58:32;;;;;;;27.48;24.80;;;27.50;99.90;;;;;;5014146;28;20065;-63
2021/07/12 11:00:59;;;;;;;26.90;24.30;;;;;;;;;;5031699;28;20494;-63
2021/07/12 11:03:37;;;;;;;25.95;23.15;;;;;;;;;;5031801;28;20029;-63
2021/07/12 11:06:05;;;;;;;24.63;22.02;;;;;;;;;;5031508;28;20082;-63
2021/07/12 11:08:50;;;;;;;24.30;21.67;;;;;;;;;;5031872;28;20107;-63
2021/07/12 11:11:19;;;;;;;24.27;21.77;;;;;;;;;;5031470;28;20041;-64
2021/07/12 11:14:00;;;;;;;24.30;21.90;;;;;;;;;;5031930;28;20021;-63
2021/07/12 11:16:30;;;;;;;25.38;22.92;;;;;;;;;;5013783;28;20093;-63
2021/07/12 11:18:56;;;;;;;24.85;22.25;;;;;;;;;;5031708;28;20022;-63
2021/07/12 11:21:32;;;;;;;25.45;22.85;;;;;;;;;;5031370;28;20390;-63
2021/07/12 11:24:15;;;;;;;25.15;22.48;;;;;;;;;;5013982;28;20041;-64
2021/07/12 11:26:42;;;;;;;25.17;22.50;;;;;;;;;;5031178;28;20022;-64
2021/07/12 11:29:19;;;;;;;24.95;22.45;;;;;;;;;;5031891;28;20021;-63
2021/07/12 11:31:47;;;;;;;26.40;23.80;;;;;;;;;;4997567;28;20038;-63
2021/07/12 11:34:32;;;;;;;26.23;23.60;;;;;;;;;;5031536;28;20029;-63
2021/07/12 11:37:08;;;;;;;24.75;22.25;;;27.40;99.90;;;;;;5031361;28;20097;-63
2021/07/12 11:39:35;;;;;;;26.50;23.90;;;;;;;;;;5031300;28;20030;-64
2021/07/12 11:42:15;;;;;;;26.52;23.92;;;;;;;;;;5031811;28;20099;-64
2021/07/12 11:45:04;;;;;;;26.48;23.77;;;31.00;99.90;;;;;;5013826;28;20405;-64
2021/07/12 11:47:34;;;;;;;26.25;23.70;;;;;;;;;;5031518;28;20060;-64
2021/07/12 11:50:01;;;;;;;26.52;23.92;;;;;;;;;;5032942;28;20557;-63
2021/07/12 11:52:28;;;;;;;24.65;22.40;;;;;;;;;;5031680;28;20428;-63
2021/07/12 11:55:05;;;;;;;23.65;21.35;;;31.60;99.90;;;;;;5031274;28;20029;-63
2021/07/12 11:57:32;;;;;;;23.75;21.23;;;;;;;;;;5031676;28;20092;-63
2021/07/12 11:59:58;;;;;;;24.35;21.88;;;;;;;;;;5013979;28;20463;-63
2021/07/12 12:02:24;;;;;;;22.92;20.58;;;29.70;99.90;;;;;;5031562;28;20063;-63
2021/07/12 12:05:00;;;;;;;24.05;21.75;;;31.90;99.90;;;;;;5031735;28;20021;-64
2021/07/12 12:07:31;;;;;;;23.55;21.25;;;33.30;97.70;;;;;;5031583;28;20049;-64
2021/07/12 12:10:02;;;;;;;24.50;22.10;;;33.80;97.80;;;;;;5031530;28;20029;-63
2021/07/12 12:12:30;;;;;;;23.55;21.35;;;34.00;98.20;;;;;;5031660;28;20116;-64
2021/07/12 12:15:04;;;;;;;24.25;21.85;;;32.60;98.90;;;;;;5031330;28;20048;-64
2021/07/12 12:17:30;;;;;;;24.30;22.00;;;34.40;97.40;;;;;;5031377;28;20033;-64
2021/07/12 12:20:19;;;;;;;25.08;22.42;;;34.00;95.70;;;;;;5013265;28;20037;-64
2021/07/12 12:23:00;;;;;;;24.77;22.38;;;34.00;96.60;;;;;;5031141;28;20022;-63
2021/07/12 12:25:41;;;;;;;26.08;23.58;;;33.30;96.80;;;;;;5013431;28;20428;-63
2021/07/12 12:28:07;;;;;;;25.33;22.92;;;32.60;97.20;;;;;;5031311;28;20395;-63
2021/07/12 12:30:34;;;;;;;24.67;22.38;;;31.50;97.70;;;;;;5013864;28;20022;-64
2021/07/12 12:33:00;;;;;;;24.88;22.48;;;31.90;98.50;;;;;;5030941;28;20032;-64
2021/07/12 12:35:29;;;;;;;25.58;22.98;;;32.40;97.50;;;;;;5013560;28;20109;-64
2021/07/12 12:38:08;;;;;;;25.40;22.92;;;32.90;98.20;;;;;;5031068;28;20085;-64
2021/07/12 12:40:33;;;;;;;24.73;22.42;;;33.70;96.40;;;;;;5031171;28;20018;-64
2021/07/12 12:43:09;;;;;;;24.45;22.13;;;32.70;96.40;;;;;;5033349;28;20079;-64
2021/07/12 12:45:34;;;;;;;25.23;22.73;;;33.30;97.00;;;;;;5034239;28;20021;-64
2021/07/12 12:48:00;;;;;;;24.17;21.85;;;33.30;96.50;;;;;;5034514;28;20079;-65
2021/07/12 12:50:26;;;;;;;24.60;22.27;;;32.90;96.30;;;;;;5034244;28;20061;-64
2021/07/12 12:53:04;;;;;;;24.08;21.67;;;;;;;;;;5033897;28;20140;-65
2021/07/12 12:55:30;;;;;;;24.50;22.13;;;;;;;;;;5033727;28;20100;-65
2021/07/12 12:58:07;;;;;;;25.45;23.00;;;32.50;95.90;;;;;;5030070;28;20025;-63
2021/07/12 13:00:32;;;;;;;25.05;22.45;;;31.00;97.00;;;;;;5045379;28;20025;-64
2021/07/12 13:02:58;;;;;;;24.80;22.50;;;;;;;;;;5043889;28;20102;-64
2021/07/12 13:05:25;;;;;;;24.83;22.52;;;;;;;;;;5043931;28;20021;-64
2021/07/12 13:07:55;;;;;;;25.50;22.95;;;;;;;;;;5042586;28;20426;-65
2021/07/12 13:10:23;;;;;;;24.75;22.25;;;;;;;;;;5034116;28;20365;-63
2021/07/12 13:12:52;;;;;;;25.55;23.02;;;;;;;;;;5044566;28;20591;-64
2021/07/12 13:15:19;;;;;;;25.27;22.85;;;;;;;;;;5042826;28;20030;-64
2021/07/12 13:17:45;;;;;;;25.57;23.07;;;;;;;;;;5040183;28;20389;-65
2021/07/12 13:20:15;;;;;;;25.60;23.10;;;;;;;;;;5032859;28;20524;-64
2021/07/12 13:22:49;;;;;;;24.50;22.10;;;;;;;;;;5033771;28;20026;-64
2021/07/12 13:25:16;;;;;;;24.17;21.90;;;;;;;;;;5033553;28;20104;-64
2021/07/12 13:27:51;;;;;;;24.30;21.98;;;;;;;;;;5034018;28;20041;-62
2021/07/12 13:30:18;;;;;;;24.25;21.88;;;;;;;;;;5032868;28;20504;-62
2021/07/12 13:32:46;;;;;;;24.02;21.73;;;;;;;;;;5033764;28;20048;-62
2021/07/12 13:35:13;;;;;;;24.08;21.70;;;;;;;;;;5033280;28;20030;-63
2021/07/12 13:37:39;;;;;;;23.83;21.53;;;;;;;;;;5033551;28;20032;-62
2021/07/12 13:40:07;;;;;;;24.40;21.77;;;;;;;;;;5033500;28;20030;-62
2021/07/12 13:42:33;;;;;;;23.33;21.13;;;;;;;;;;5033669;28;20478;-63
2021/07/12 13:44:59;;;;;;;23.45;21.20;;;;;;;;;;5032253;28;20024;-62
2021/07/12 13:47:25;;;;;;;23.95;21.65;;;;;;;;;;5033432;28;20028;-62
2021/07/12 13:49:51;;;;;;;23.75;21.45;;;;;;;;;;5033230;28;20547;-65
2021/07/12 13:52:17;;;;;;;23.77;21.58;;;;;;;;;;5070405;22;20123;-57
2021/07/12 13:54:43;;;;;;;23.73;21.42;;;;;;;;;;5072400;28;20108;-56
2021/07/12 13:57:09;;;;;;;24.35;21.75;;;;;;;;;;5054074;28;20032;-54
2021/07/12 13:59:43;;;;;;;23.35;21.13;;;;;;;;;;5055411;28;20056;-58
2021/07/12 14:02:10;;;;;;;23.67;21.33;;;;;;;;;;5073540;28;20082;-53
2021/07/12 14:04:36;;;;;;;23.30;21.05;;;;;;;;;;5055180;28;20493;-56
2021/07/12 14:07:02;;;;;;;23.20;20.92;;;;;;;;;;5073048;28;20020;-55
2021/07/12 14:09:28;;;;;;;22.52;20.42;;;;;;;;;;5073208;28;20095;-61
2021/07/12 14:11:54;;;;;;;22.73;20.17;;;;;;;;;;5054994;28;20025;-61
2021/07/12 14:14:20;;;;;;;22.33;20.15;;;;;;;;;;5072994;28;20024;-62
2021/07/12 14:16:46;;;;;;;25.98;20.52;;;;;;;;;;5054943;28;20081;-62
2021/07/12 14:19:12;;;;;;;22.10;19.90;;;;;;;;;;5044417;28;20033;-62